PWSweather.com
Personal Weather Stations
Station Observations
AC5CV
Greenleaf Peninsula, Waco, TX 76710

Greenleaf PeninsulaWaco, TX 76710

Lat: 31.565, Lon: -97.198

Elevation: 570

Station Type: Ambient WS2080

http://johnchamber.dyndns.info/

High Low Average
Temperature 92.5°F33.6°C 74.7°F23.7°C 80.3°F26.8°C
Dew Point 81.4°F27.4°C 65.3°F18.5°C 71.5°F21.9°C
Winds 10.2 mph 16.4 kmh Calm Calm 1.0 mph ESE1.6 kmh ESE
Wind Gusts 17.4 mph28.0 kmh -- 4.0 mph6.4 kmh
Humidity 94% 42% 76%
Pressure 29.36 in994.2 mb 29.22 in989.5 mb -
Precipitation 0.48 in12.2 mm - -
Hour Temp Dew Point Humidity Winds Wind Gusts Pressure Precip Precip Rate Daily Precip Total
12:00 AM 78.1°F25.6°C 69.9°F21.1°C 76% 4.0 mph SE6.4 kmh SE 9.8 mph15.8 kmh 29.34 in993.6 mb 0.00 in0.0 mm 0.00 in0.0 mm 0.00 in0.0 mm
12:05 AM 77.8°F25.4°C 69.5°F20.8°C 76% 2.4 mph ESE3.9 kmh ESE 4.9 mph7.9 kmh 29.34 in993.6 mb 0.00 in0.0 mm 0.00 in0.0 mm 0.00 in0.0 mm
12:10 AM 77.6°F25.3°C 69.0°F20.6°C 75% 0.6 mph E1.0 kmh E 2.5 mph4.0 kmh 29.34 in993.6 mb 0.00 in0.0 mm 0.00 in0.0 mm 0.00 in0.0 mm
12:15 AM 77.5°F25.3°C 68.8°F20.4°C 75% 0.2 mph NNE0.3 kmh NNE 2.5 mph4.0 kmh 29.34 in993.6 mb 0.00 in0.0 mm 0.00 in0.0 mm 0.00 in0.0 mm
12:20 AM 77.5°F25.3°C 68.5°F20.3°C 74% 0.8 mph NE1.3 kmh NE 2.5 mph4.0 kmh 29.34 in993.6 mb 0.00 in0.0 mm 0.00 in0.0 mm 0.00 in0.0 mm
12:25 AM 77.7°F25.4°C 68.8°F20.4°C 74% 1.0 mph ESE1.6 kmh ESE 4.9 mph7.9 kmh 29.33 in993.2 mb 0.00 in0.0 mm 0.00 in0.0 mm 0.00 in0.0 mm
12:30 AM 78.0°F25.6°C 69.0°F20.6°C 74% 0.6 mph ENE1.0 kmh ENE 2.5 mph4.0 kmh 29.33 in993.2 mb 0.00 in0.0 mm 0.00 in0.0 mm 0.00 in0.0 mm
12:35 AM 78.2°F25.7°C 69.2°F20.7°C 74% 1.7 mph NE2.7 kmh NE 4.9 mph7.9 kmh 29.33 in993.2 mb 0.00 in0.0 mm 0.00 in0.0 mm 0.00 in0.0 mm
12:40 AM 78.4°F25.8°C 69.4°F20.8°C 74% 0.4 mph NE0.6 kmh NE 2.5 mph4.0 kmh 29.33 in993.2 mb 0.00 in0.0 mm 0.00 in0.0 mm 0.00 in0.0 mm
12:45 AM 78.6°F25.9°C 69.8°F21.0°C 75% 2.6 mph E4.2 kmh E 4.9 mph7.9 kmh 29.33 in993.2 mb 0.00 in0.0 mm 0.00 in0.0 mm 0.00 in0.0 mm
12:50 AM 78.4°F25.8°C 69.8°F21.0°C 75% 1.8 mph ENE2.9 kmh ENE 7.4 mph11.9 kmh 29.32 in992.9 mb 0.00 in0.0 mm 0.00 in0.0 mm 0.00 in0.0 mm
12:55 AM 78.2°F25.7°C 70.0°F21.1°C 76% 0.5 mph NE0.8 kmh NE 2.5 mph4.0 kmh 29.32 in992.9 mb 0.00 in0.0 mm 0.00 in0.0 mm 0.00 in0.0 mm
01:00 AM 77.9°F25.5°C 69.7°F20.9°C 76% 1.6 mph SE2.6 kmh SE 4.9 mph7.9 kmh 29.32 in992.9 mb 0.00 in0.0 mm 0.00 in0.0 mm 0.00 in0.0 mm
01:05 AM 77.6°F25.3°C 69.6°F20.9°C 76% 1.5 mph ESE2.4 kmh ESE 4.9 mph7.9 kmh 29.32 in992.9 mb 0.00 in0.0 mm 0.00 in0.0 mm 0.00 in0.0 mm
01:10 AM 77.4°F25.2°C 69.6°F20.9°C 77% 4.0 mph ESE6.4 kmh ESE 7.4 mph11.9 kmh 29.32 in992.9 mb 0.00 in0.0 mm 0.00 in0.0 mm 0.00 in0.0 mm
01:15 AM 77.2°F25.1°C 69.4°F20.8°C 77% 2.5 mph SSE4.0 kmh SSE 7.4 mph11.9 kmh 29.32 in992.9 mb 0.00 in0.0 mm 0.00 in0.0 mm 0.00 in0.0 mm
01:20 AM 77.2°F25.1°C 69.4°F20.8°C 77% 1.5 mph SE2.4 kmh SE 7.4 mph11.9 kmh 29.32 in992.9 mb 0.00 in0.0 mm 0.00 in0.0 mm 0.00 in0.0 mm
01:25 AM 77.2°F25.1°C 69.8°F21.0°C 78% 0.8 mph ENE1.3 kmh ENE 4.9 mph7.9 kmh 29.32 in992.9 mb 0.00 in0.0 mm 0.00 in0.0 mm 0.00 in0.0 mm
01:30 AM 77.2°F25.1°C 69.8°F21.0°C 78% 2.6 mph SE4.2 kmh SE 7.4 mph11.9 kmh 29.32 in992.9 mb 0.00 in0.0 mm 0.00 in0.0 mm 0.00 in0.0 mm
01:35 AM 77.2°F25.1°C 69.8°F21.0°C 78% 0.7 mph ESE1.1 kmh ESE 2.5 mph4.0 kmh 29.32 in992.9 mb 0.00 in0.0 mm 0.00 in0.0 mm 0.00 in0.0 mm
01:40 AM 77.2°F25.1°C 69.8°F21.0°C 78% 0.7 mph SE1.1 kmh SE 2.5 mph4.0 kmh 29.32 in992.9 mb 0.00 in0.0 mm 0.00 in0.0 mm 0.00 in0.0 mm
01:45 AM 77.2°F25.1°C 69.8°F21.0°C 78% 0.1 mph S0.2 kmh S 2.5 mph4.0 kmh 29.32 in992.9 mb 0.00 in0.0 mm 0.00 in0.0 mm 0.00 in0.0 mm
01:50 AM 77.2°F25.1°C 70.2°F21.2°C 79% 0.1 mph S0.2 kmh S 2.5 mph4.0 kmh 29.32 in992.9 mb 0.00 in0.0 mm 0.00 in0.0 mm 0.00 in0.0 mm
01:55 AM 77.2°F25.1°C 70.2°F21.2°C 79% 0.9 mph S1.4 kmh S 4.9 mph7.9 kmh 29.32 in992.9 mb 0.00 in0.0 mm 0.00 in0.0 mm 0.00 in0.0 mm
02:00 AM 77.2°F25.1°C 70.2°F21.2°C 79% 0.3 mph SSW0.5 kmh SSW 2.5 mph4.0 kmh 29.32 in992.9 mb 0.00 in0.0 mm 0.00 in0.0 mm 0.00 in0.0 mm
02:05 AM 77.2°F25.1°C 70.4°F21.3°C 80% 0.2 mph S0.3 kmh S 2.5 mph4.0 kmh 29.32 in992.9 mb 0.00 in0.0 mm 0.00 in0.0 mm 0.00 in0.0 mm
02:10 AM 77.2°F25.1°C 70.5°F21.4°C 80% 1.2 mph S1.9 kmh S 4.9 mph7.9 kmh 29.32 in992.9 mb 0.00 in0.0 mm 0.00 in0.0 mm 0.00 in0.0 mm
02:15 AM 77.2°F25.1°C 70.5°F21.4°C 80% Calm Calm -- 29.32 in992.9 mb 0.00 in0.0 mm 0.00 in0.0 mm 0.00 in0.0 mm
02:20 AM 77.2°F25.1°C 70.6°F21.4°C 80% Calm Calm -- 29.32 in992.9 mb 0.00 in0.0 mm 0.00 in0.0 mm 0.00 in0.0 mm
02:25 AM 77.0°F25.0°C 70.7°F21.5°C 81% Calm Calm -- 29.32 in992.9 mb 0.00 in0.0 mm 0.00 in0.0 mm 0.00 in0.0 mm
02:30 AM 77.0°F25.0°C 70.7°F21.5°C 81% Calm Calm -- 29.31 in992.6 mb 0.00 in0.0 mm 0.00 in0.0 mm 0.00 in0.0 mm
02:35 AM 77.0°F25.0°C 70.8°F21.6°C 81% Calm Calm -- 29.31 in992.6 mb 0.00 in0.0 mm 0.00 in0.0 mm 0.00 in0.0 mm
02:40 AM 77.0°F25.0°C 71.1°F21.7°C 82% Calm Calm 2.5 mph4.0 kmh 29.31 in992.6 mb 0.00 in0.0 mm 0.00 in0.0 mm 0.00 in0.0 mm
02:45 AM 77.0°F25.0°C 71.1°F21.7°C 82% Calm Calm -- 29.32 in992.9 mb 0.00 in0.0 mm 0.00 in0.0 mm 0.00 in0.0 mm
02:50 AM 77.0°F25.0°C 71.1°F21.7°C 82% Calm Calm -- 29.32 in992.9 mb 0.00 in0.0 mm 0.00 in0.0 mm 0.00 in0.0 mm
02:55 AM 76.9°F24.9°C 71.2°F21.8°C 82% Calm Calm -- 29.32 in992.9 mb 0.00 in0.0 mm 0.00 in0.0 mm 0.00 in0.0 mm
03:00 AM 76.8°F24.9°C 71.5°F21.9°C 84% Calm Calm -- 29.32 in992.9 mb 0.00 in0.0 mm 0.00 in0.0 mm 0.00 in0.0 mm
03:05 AM 76.8°F24.9°C 71.6°F22.0°C 84% Calm Calm -- 29.32 in992.9 mb 0.00 in0.0 mm 0.00 in0.0 mm 0.00 in0.0 mm
03:10 AM 76.8°F24.9°C 71.6°F22.0°C 84% Calm Calm -- 29.32 in992.9 mb 0.00 in0.0 mm 0.00 in0.0 mm 0.00 in0.0 mm
03:15 AM 76.8°F24.9°C 71.9°F22.2°C 85% Calm Calm -- 29.32 in992.9 mb 0.00 in0.0 mm 0.00 in0.0 mm 0.00 in0.0 mm
03:20 AM 76.7°F24.8°C 71.8°F22.1°C 85% Calm Calm -- 29.32 in992.9 mb 0.00 in0.0 mm 0.00 in0.0 mm 0.00 in0.0 mm
03:25 AM 76.6°F24.8°C 71.5°F21.9°C 84% 0.1 mph SE0.2 kmh SE 2.5 mph4.0 kmh 29.33 in993.2 mb 0.00 in0.0 mm 0.00 in0.0 mm 0.00 in0.0 mm
03:30 AM 76.7°F24.8°C 71.4°F21.9°C 84% Calm Calm -- 29.33 in993.2 mb 0.00 in0.0 mm 0.00 in0.0 mm 0.00 in0.0 mm
03:35 AM 76.8°F24.9°C 71.2°F21.8°C 83% Calm Calm -- 29.33 in993.2 mb 0.00 in0.0 mm 0.00 in0.0 mm 0.00 in0.0 mm
03:40 AM 76.8°F24.9°C 71.2°F21.8°C 83% Calm Calm -- 29.33 in993.2 mb 0.00 in0.0 mm 0.00 in0.0 mm 0.00 in0.0 mm
03:45 AM 76.8°F24.9°C 71.2°F21.8°C 83% 1.1 mph N1.8 kmh N 2.5 mph4.0 kmh 29.33 in993.2 mb 0.00 in0.0 mm 0.00 in0.0 mm 0.00 in0.0 mm
03:50 AM 76.8°F24.9°C 71.2°F21.8°C 83% 0.2 mph NW0.3 kmh NW 2.5 mph4.0 kmh 29.33 in993.2 mb 0.00 in0.0 mm 0.00 in0.0 mm 0.00 in0.0 mm
03:55 AM 76.8°F24.9°C 71.4°F21.9°C 83% 0.2 mph NNE0.3 kmh NNE 2.5 mph4.0 kmh 29.33 in993.2 mb 0.00 in0.0 mm 0.00 in0.0 mm 0.00 in0.0 mm
04:00 AM 76.8°F24.9°C 71.6°F22.0°C 84% 0.7 mph N1.1 kmh N 2.5 mph4.0 kmh 29.33 in993.2 mb 0.00 in0.0 mm 0.00 in0.0 mm 0.00 in0.0 mm
04:05 AM 76.8°F24.9°C 71.8°F22.1°C 85% 0.2 mph ENE0.3 kmh ENE 2.5 mph4.0 kmh 29.33 in993.2 mb 0.00 in0.0 mm 0.00 in0.0 mm 0.00 in0.0 mm
04:10 AM 76.8°F24.9°C 71.9°F22.2°C 85% 0.4 mph NE0.6 kmh NE 2.5 mph4.0 kmh 29.33 in993.2 mb 0.00 in0.0 mm 0.00 in0.0 mm 0.00 in0.0 mm
04:15 AM 76.6°F24.8°C 71.7°F22.1°C 85% 0.2 mph ENE0.3 kmh ENE 2.5 mph4.0 kmh 29.33 in993.2 mb 0.00 in0.0 mm 0.00 in0.0 mm 0.00 in0.0 mm
04:20 AM 76.6°F24.8°C 71.7°F22.1°C 85% 0.9 mph NE1.4 kmh NE 4.9 mph7.9 kmh 29.33 in993.2 mb 0.00 in0.0 mm 0.00 in0.0 mm 0.00 in0.0 mm
04:25 AM 76.5°F24.7°C 71.6°F22.0°C 85% 0.1 mph NW0.2 kmh NW 2.5 mph4.0 kmh 29.34 in993.6 mb 0.00 in0.0 mm 0.00 in0.0 mm 0.00 in0.0 mm
04:30 AM 76.5°F24.7°C 71.6°F22.0°C 85% 0.1 mph NW0.2 kmh NW 2.5 mph4.0 kmh 29.33 in993.2 mb 0.00 in0.0 mm 0.00 in0.0 mm 0.00 in0.0 mm
04:35 AM 76.5°F24.7°C 71.6°F22.0°C 85% 0.5 mph E0.8 kmh E 4.9 mph7.9 kmh 29.33 in993.2 mb 0.00 in0.0 mm 0.00 in0.0 mm 0.00 in0.0 mm
04:40 AM 76.5°F24.7°C 71.6°F22.0°C 85% 0.7 mph E1.1 kmh E 4.9 mph7.9 kmh 29.32 in992.9 mb 0.00 in0.0 mm 0.00 in0.0 mm 0.00 in0.0 mm
04:45 AM 76.5°F24.7°C 71.6°F22.0°C 85% 0.7 mph SE1.1 kmh SE 2.5 mph4.0 kmh 29.32 in992.9 mb 0.00 in0.0 mm 0.00 in0.0 mm 0.00 in0.0 mm
04:50 AM 76.4°F24.7°C 71.7°F22.1°C 85% 1.3 mph E2.1 kmh E 4.9 mph7.9 kmh 29.32 in992.9 mb 0.00 in0.0 mm 0.00 in0.0 mm 0.00 in0.0 mm
04:55 AM 76.3°F24.6°C 71.8°F22.1°C 86% 0.2 mph ENE0.3 kmh ENE 2.5 mph4.0 kmh 29.32 in992.9 mb 0.00 in0.0 mm 0.00 in0.0 mm 0.00 in0.0 mm
05:00 AM 76.3°F24.6°C 71.8°F22.1°C 86% 0.2 mph N0.3 kmh N 2.5 mph4.0 kmh 29.32 in992.9 mb 0.00 in0.0 mm 0.00 in0.0 mm 0.00 in0.0 mm
05:05 AM 76.3°F24.6°C 71.8°F22.1°C 86% Calm Calm -- 29.32 in992.9 mb 0.00 in0.0 mm 0.00 in0.0 mm 0.00 in0.0 mm
05:10 AM 76.3°F24.6°C 71.8°F22.1°C 86% 0.3 mph NNW0.5 kmh NNW 2.5 mph4.0 kmh 29.32 in992.9 mb 0.00 in0.0 mm 0.00 in0.0 mm 0.00 in0.0 mm
05:15 AM 76.2°F24.6°C 71.7°F22.1°C 86% Calm Calm 2.5 mph4.0 kmh 29.32 in992.9 mb 0.00 in0.0 mm 0.00 in0.0 mm 0.00 in0.0 mm
05:20 AM 76.1°F24.5°C 71.6°F22.0°C 86% 0.4 mph N0.6 kmh N 2.5 mph4.0 kmh 29.32 in992.9 mb 0.00 in0.0 mm 0.00 in0.0 mm 0.00 in0.0 mm
05:25 AM 76.1°F24.5°C 71.7°F22.1°C 86% Calm Calm 2.5 mph4.0 kmh 29.32 in992.9 mb 0.00 in0.0 mm 0.00 in0.0 mm 0.00 in0.0 mm
05:30 AM 76.0°F24.4°C 71.8°F22.1°C 87% 0.4 mph N0.6 kmh N 2.5 mph4.0 kmh 29.33 in993.2 mb 0.00 in0.0 mm 0.00 in0.0 mm 0.00 in0.0 mm
05:35 AM 75.9°F24.4°C 71.7°F22.1°C 87% Calm Calm -- 29.32 in992.9 mb 0.00 in0.0 mm 0.00 in0.0 mm 0.00 in0.0 mm
05:40 AM 75.8°F24.3°C 71.6°F22.0°C 87% 0.1 mph NE0.2 kmh NE 2.5 mph4.0 kmh 29.32 in992.9 mb 0.00 in0.0 mm 0.00 in0.0 mm 0.00 in0.0 mm
05:45 AM 75.7°F24.3°C 71.5°F21.9°C 87% 0.4 mph NNW0.6 kmh NNW 2.5 mph4.0 kmh 29.32 in992.9 mb 0.00 in0.0 mm 0.00 in0.0 mm 0.00 in0.0 mm
05:50 AM 75.7°F24.3°C 71.8°F22.1°C 88% 1.1 mph ENE1.8 kmh ENE 4.9 mph7.9 kmh 29.32 in992.9 mb 0.00 in0.0 mm 0.00 in0.0 mm 0.00 in0.0 mm
05:55 AM 75.6°F24.2°C 71.8°F22.1°C 88% 0.9 mph E1.4 kmh E 2.5 mph4.0 kmh 29.32 in992.9 mb 0.00 in0.0 mm 0.00 in0.0 mm 0.00 in0.0 mm
06:00 AM 75.6°F24.2°C 71.8°F22.1°C 88% 0.3 mph NE0.5 kmh NE 2.5 mph4.0 kmh 29.32 in992.9 mb 0.00 in0.0 mm 0.00 in0.0 mm 0.00 in0.0 mm
06:05 AM 75.4°F24.1°C 71.6°F22.0°C 88% 1.1 mph ENE1.8 kmh ENE 4.9 mph7.9 kmh 29.32 in992.9 mb 0.00 in0.0 mm 0.00 in0.0 mm 0.00 in0.0 mm
06:10 AM 75.4°F24.1°C 71.6°F22.0°C 88% 0.6 mph E1.0 kmh E 2.5 mph4.0 kmh 29.32 in992.9 mb 0.00 in0.0 mm 0.00 in0.0 mm 0.00 in0.0 mm
06:15 AM 75.3°F24.1°C 71.8°F22.1°C 89% 0.3 mph N0.5 kmh N 2.5 mph4.0 kmh 29.32 in992.9 mb 0.00 in0.0 mm 0.00 in0.0 mm 0.00 in0.0 mm
06:20 AM 75.2°F24.0°C 71.9°F22.2°C 89% 0.6 mph NE1.0 kmh NE 2.5 mph4.0 kmh 29.32 in992.9 mb 0.00 in0.0 mm 0.00 in0.0 mm 0.00 in0.0 mm
06:25 AM 75.2°F24.0°C 72.1°F22.3°C 90% 0.6 mph NE1.0 kmh NE 2.5 mph4.0 kmh 29.33 in993.2 mb 0.00 in0.0 mm 0.00 in0.0 mm 0.00 in0.0 mm
06:30 AM 75.0°F23.9°C 72.1°F22.3°C 91% 1.2 mph NE1.9 kmh NE 4.9 mph7.9 kmh 29.33 in993.2 mb 0.00 in0.0 mm 0.00 in0.0 mm 0.00 in0.0 mm
06:35 AM 75.0°F23.9°C 72.2°F22.3°C 91% 0.2 mph NNE0.3 kmh NNE 2.5 mph4.0 kmh 29.32 in992.9 mb 0.00 in0.0 mm 0.00 in0.0 mm 0.00 in0.0 mm
06:40 AM 74.8°F23.8°C 72.0°F22.2°C 91% 0.3 mph NE0.5 kmh NE 4.9 mph7.9 kmh 29.32 in992.9 mb 0.00 in0.0 mm 0.00 in0.0 mm 0.00 in0.0 mm
06:45 AM 74.8°F23.8°C 72.0°F22.2°C 91% 0.4 mph ESE0.6 kmh ESE 2.5 mph4.0 kmh 29.32 in992.9 mb 0.00 in0.0 mm 0.00 in0.0 mm 0.00 in0.0 mm
06:50 AM 74.7°F23.7°C 72.2°F22.3°C 92% 1.0 mph E1.6 kmh E 4.9 mph7.9 kmh 29.32 in992.9 mb 0.00 in0.0 mm 0.00 in0.0 mm 0.00 in0.0 mm
06:55 AM 74.7°F23.7°C 72.2°F22.3°C 92% 0.8 mph E1.3 kmh E 2.5 mph4.0 kmh 29.32 in992.9 mb 0.00 in0.0 mm 0.00 in0.0 mm 0.00 in0.0 mm
07:00 AM 74.7°F23.7°C 72.2°F22.3°C 92% 1.6 mph ENE2.6 kmh ENE 4.9 mph7.9 kmh 29.32 in992.9 mb 0.00 in0.0 mm 0.00 in0.0 mm 0.00 in0.0 mm
07:05 AM 74.7°F23.7°C 72.2°F22.3°C 92% 0.5 mph E0.8 kmh E 2.5 mph4.0 kmh 29.33 in993.2 mb 0.00 in0.0 mm 0.00 in0.0 mm 0.00 in0.0 mm
07:10 AM 74.7°F23.7°C 72.2°F22.3°C 92% 1.5 mph E2.4 kmh E 4.9 mph7.9 kmh 29.33 in993.2 mb 0.00 in0.0 mm 0.00 in0.0 mm 0.00 in0.0 mm
07:15 AM 74.7°F23.7°C 72.2°F22.3°C 92% 1.0 mph ENE1.6 kmh ENE 4.9 mph7.9 kmh 29.33 in993.2 mb 0.00 in0.0 mm 0.00 in0.0 mm 0.00 in0.0 mm
07:20 AM 74.7°F23.7°C 72.2°F22.3°C 92% 1.4 mph ESE2.3 kmh ESE 4.9 mph7.9 kmh 29.33 in993.2 mb 0.00 in0.0 mm 0.00 in0.0 mm 0.00 in0.0 mm
07:25 AM 74.7°F23.7°C 72.0°F22.2°C 91% 2.4 mph E3.9 kmh E 7.4 mph11.9 kmh 29.33 in993.2 mb 0.00 in0.0 mm 0.00 in0.0 mm 0.00 in0.0 mm
07:30 AM 74.7°F23.7°C 71.6°F22.0°C 90% 3.0 mph ESE4.8 kmh ESE 7.4 mph11.9 kmh 29.33 in993.2 mb 0.00 in0.0 mm 0.00 in0.0 mm 0.00 in0.0 mm
07:35 AM 74.8°F23.8°C 71.3°F21.8°C 89% 1.5 mph ESE2.4 kmh ESE 4.9 mph7.9 kmh 29.34 in993.6 mb 0.00 in0.0 mm 0.00 in0.0 mm 0.00 in0.0 mm
07:40 AM 74.8°F23.8°C 71.2°F21.8°C 88% 0.9 mph E1.4 kmh E 2.5 mph4.0 kmh 29.34 in993.6 mb 0.00 in0.0 mm 0.00 in0.0 mm 0.00 in0.0 mm
07:45 AM 75.0°F23.9°C 71.1°F21.7°C 88% 2.1 mph ENE3.4 kmh ENE 7.4 mph11.9 kmh 29.34 in993.6 mb 0.00 in0.0 mm 0.00 in0.0 mm 0.00 in0.0 mm
07:50 AM 75.2°F24.0°C 71.1°F21.7°C 87% 1.3 mph E2.1 kmh E 4.9 mph7.9 kmh 29.34 in993.6 mb 0.00 in0.0 mm 0.00 in0.0 mm 0.00 in0.0 mm
07:55 AM 75.3°F24.1°C 71.2°F21.8°C 87% 1.8 mph NE2.9 kmh NE 4.9 mph7.9 kmh 29.34 in993.6 mb 0.00 in0.0 mm 0.00 in0.0 mm 0.00 in0.0 mm
08:00 AM 75.5°F24.2°C 71.0°F21.7°C 86% 1.5 mph ENE2.4 kmh ENE 4.9 mph7.9 kmh 29.34 in993.6 mb 0.00 in0.0 mm 0.00 in0.0 mm 0.00 in0.0 mm
08:05 AM 75.6°F24.2°C 71.0°F21.7°C 86% 1.6 mph E2.6 kmh E 4.9 mph7.9 kmh 29.34 in993.6 mb 0.00 in0.0 mm 0.00 in0.0 mm 0.00 in0.0 mm
08:10 AM 75.7°F24.3°C 70.9°F21.6°C 85% 3.0 mph ENE4.8 kmh ENE 7.4 mph11.9 kmh 29.34 in993.6 mb 0.00 in0.0 mm 0.00 in0.0 mm 0.00 in0.0 mm
08:15 AM 75.9°F24.4°C 71.1°F21.7°C 85% 1.4 mph E2.3 kmh E 4.9 mph7.9 kmh 29.34 in993.6 mb 0.00 in0.0 mm 0.00 in0.0 mm 0.00 in0.0 mm
08:20 AM 76.0°F24.4°C 70.8°F21.6°C 84% 2.7 mph E4.3 kmh E 4.9 mph7.9 kmh 29.34 in993.6 mb 0.00 in0.0 mm 0.00 in0.0 mm 0.00 in0.0 mm
08:25 AM 76.2°F24.6°C 70.8°F21.6°C 84% 2.5 mph ENE4.0 kmh ENE 4.9 mph7.9 kmh 29.34 in993.6 mb 0.00 in0.0 mm 0.00 in0.0 mm 0.00 in0.0 mm
08:30 AM 76.4°F24.7°C 70.5°F21.4°C 82% 3.6 mph E5.8 kmh E 7.4 mph11.9 kmh 29.34 in993.6 mb 0.00 in0.0 mm 0.00 in0.0 mm 0.00 in0.0 mm
08:35 AM 76.5°F24.7°C 70.2°F21.2°C 81% 3.0 mph E4.8 kmh E 4.9 mph7.9 kmh 29.34 in993.6 mb 0.00 in0.0 mm 0.00 in0.0 mm 0.00 in0.0 mm
08:40 AM 76.6°F24.8°C 70.3°F21.3°C 81% 2.6 mph E4.2 kmh E 4.9 mph7.9 kmh 29.35 in993.9 mb 0.00 in0.0 mm 0.00 in0.0 mm 0.00 in0.0 mm
08:45 AM 76.8°F24.9°C 70.9°F21.6°C 82% 2.9 mph NE4.7 kmh NE 7.4 mph11.9 kmh 29.35 in993.9 mb 0.00 in0.0 mm 0.00 in0.0 mm 0.00 in0.0 mm
08:50 AM 76.8°F24.9°C 71.0°F21.7°C 82% 2.0 mph ENE3.2 kmh ENE 4.9 mph7.9 kmh 29.35 in993.9 mb 0.00 in0.0 mm 0.00 in0.0 mm 0.00 in0.0 mm
08:55 AM 76.9°F24.9°C 71.0°F21.7°C 82% 1.7 mph E2.7 kmh E 7.4 mph11.9 kmh 29.35 in993.9 mb 0.00 in0.0 mm 0.00 in0.0 mm 0.00 in0.0 mm
09:00 AM 77.0°F25.0°C 71.0°F21.7°C 82% 1.7 mph E2.7 kmh E 4.9 mph7.9 kmh 29.36 in994.2 mb 0.00 in0.0 mm 0.00 in0.0 mm 0.00 in0.0 mm
09:05 AM 77.0°F25.0°C 70.7°F21.5°C 81% 3.3 mph ESE5.3 kmh ESE 4.9 mph7.9 kmh 29.36 in994.2 mb 0.00 in0.0 mm 0.00 in0.0 mm 0.00 in0.0 mm
09:10 AM 77.0°F25.0°C 70.5°F21.4°C 80% 2.6 mph NE4.2 kmh NE 7.4 mph11.9 kmh 29.36 in994.2 mb 0.00 in0.0 mm 0.00 in0.0 mm 0.00 in0.0 mm
09:15 AM 77.0°F25.0°C 70.3°F21.3°C 80% 1.5 mph E2.4 kmh E 7.4 mph11.9 kmh 29.36 in994.2 mb 0.00 in0.0 mm 0.00 in0.0 mm 0.00 in0.0 mm
09:20 AM 77.1°F25.1°C 70.3°F21.3°C 80% 1.1 mph ENE1.8 kmh ENE 4.9 mph7.9 kmh 29.36 in994.2 mb 0.00 in0.0 mm 0.00 in0.0 mm 0.00 in0.0 mm
09:25 AM 77.2°F25.1°C 70.3°F21.3°C 79% 2.8 mph ENE4.5 kmh ENE 7.4 mph11.9 kmh 29.36 in994.2 mb 0.00 in0.0 mm 0.00 in0.0 mm 0.00 in0.0 mm
09:30 AM 77.2°F25.1°C 70.3°F21.3°C 79% 2.6 mph E4.2 kmh E 9.8 mph15.8 kmh 29.36 in994.2 mb 0.00 in0.0 mm 0.00 in0.0 mm 0.00 in0.0 mm
09:35 AM 77.2°F25.1°C 70.2°F21.2°C 79% 2.8 mph E4.5 kmh E 4.9 mph7.9 kmh 29.36 in994.2 mb 0.00 in0.0 mm 0.00 in0.0 mm 0.00 in0.0 mm
09:40 AM 77.4°F25.2°C 70.1°F21.2°C 78% 2.0 mph E3.2 kmh E 4.9 mph7.9 kmh 29.36 in994.2 mb 0.00 in0.0 mm 0.00 in0.0 mm 0.00 in0.0 mm
09:45 AM 77.6°F25.3°C 69.4°F20.8°C 76% 2.9 mph ESE4.7 kmh ESE 7.4 mph11.9 kmh 29.36 in994.2 mb 0.00 in0.0 mm 0.00 in0.0 mm 0.00 in0.0 mm
09:50 AM 77.8°F25.4°C 69.3°F20.7°C 75% 2.3 mph ESE3.7 kmh ESE 7.4 mph11.9 kmh 29.36 in994.2 mb 0.00 in0.0 mm 0.00 in0.0 mm 0.00 in0.0 mm
09:55 AM 78.2°F25.7°C 69.4°F20.8°C 75% 2.2 mph NE3.5 kmh NE 4.9 mph7.9 kmh 29.35 in993.9 mb 0.00 in0.0 mm 0.00 in0.0 mm 0.00 in0.0 mm
10:00 AM 78.5°F25.8°C 69.3°F20.7°C 74% 0.9 mph NE1.4 kmh NE 4.9 mph7.9 kmh 29.36 in994.2 mb 0.00 in0.0 mm 0.00 in0.0 mm 0.00 in0.0 mm
10:05 AM 79.0°F26.1°C 69.5°F20.8°C 73% 0.9 mph ENE1.4 kmh ENE 2.5 mph4.0 kmh 29.36 in994.2 mb 0.00 in0.0 mm 0.00 in0.0 mm 0.00 in0.0 mm
10:10 AM 79.3°F26.3°C 69.2°F20.7°C 71% 1.9 mph NE3.1 kmh NE 4.9 mph7.9 kmh 29.36 in994.2 mb 0.00 in0.0 mm 0.00 in0.0 mm 0.00 in0.0 mm
10:15 AM 79.7°F26.5°C 68.8°F20.4°C 70% 1.7 mph SE2.7 kmh SE 4.9 mph7.9 kmh 29.35 in993.9 mb 0.00 in0.0 mm 0.00 in0.0 mm 0.00 in0.0 mm
10:20 AM 80.2°F26.8°C 68.5°F20.3°C 68% 1.9 mph E3.1 kmh E 7.4 mph11.9 kmh 29.35 in993.9 mb 0.00 in0.0 mm 0.00 in0.0 mm 0.00 in0.0 mm
10:25 AM 80.8°F27.1°C 69.1°F20.6°C 68% 1.7 mph E2.7 kmh E 4.9 mph7.9 kmh 29.35 in993.9 mb 0.00 in0.0 mm 0.00 in0.0 mm 0.00 in0.0 mm
10:30 AM 81.3°F27.4°C 68.1°F20.1°C 64% 2.6 mph SE4.2 kmh SE 7.4 mph11.9 kmh 29.35 in993.9 mb 0.00 in0.0 mm 0.00 in0.0 mm 0.00 in0.0 mm
10:35 AM 82.0°F27.8°C 68.7°F20.4°C 64% 3.7 mph ENE6.0 kmh ENE 7.4 mph11.9 kmh 29.35 in993.9 mb 0.00 in0.0 mm 0.00 in0.0 mm 0.00 in0.0 mm
10:40 AM 82.6°F28.1°C 68.1°F20.1°C 62% 1.2 mph SE1.9 kmh SE 4.9 mph7.9 kmh 29.35 in993.9 mb 0.00 in0.0 mm 0.00 in0.0 mm 0.00 in0.0 mm
10:45 AM 83.2°F28.4°C 68.8°F20.4°C 62% 2.9 mph E4.7 kmh E 4.9 mph7.9 kmh 29.35 in993.9 mb 0.00 in0.0 mm 0.00 in0.0 mm 0.00 in0.0 mm
10:50 AM 83.5°F28.6°C 69.3°F20.7°C 62% 2.3 mph ENE3.7 kmh ENE 7.4 mph11.9 kmh 29.35 in993.9 mb 0.00 in0.0 mm 0.00 in0.0 mm 0.00 in0.0 mm
10:55 AM 83.9°F28.8°C 69.1°F20.6°C 61% 2.9 mph ENE4.7 kmh ENE 4.9 mph7.9 kmh 29.35 in993.9 mb 0.00 in0.0 mm 0.00 in0.0 mm 0.00 in0.0 mm
11:00 AM 84.2°F29.0°C 69.1°F20.6°C 61% 2.3 mph E3.7 kmh E 7.4 mph11.9 kmh 29.36 in994.2 mb 0.00 in0.0 mm 0.00 in0.0 mm 0.00 in0.0 mm
11:05 AM 84.4°F29.1°C 69.5°F20.8°C 61% 1.6 mph ENE2.6 kmh ENE 4.9 mph7.9 kmh 29.35 in993.9 mb 0.00 in0.0 mm 0.00 in0.0 mm 0.00 in0.0 mm
11:10 AM 84.5°F29.2°C 69.4°F20.8°C 61% 0.9 mph ESE1.4 kmh ESE 4.9 mph7.9 kmh 29.35 in993.9 mb 0.00 in0.0 mm 0.00 in0.0 mm 0.00 in0.0 mm
11:15 AM 84.6°F29.2°C 69.4°F20.8°C 60% 1.5 mph NE2.4 kmh NE 4.9 mph7.9 kmh 29.35 in993.9 mb 0.00 in0.0 mm 0.00 in0.0 mm 0.00 in0.0 mm
11:20 AM 84.8°F29.3°C 70.0°F21.1°C 61% 1.4 mph 2.3 kmh 7.4 mph11.9 kmh 29.34 in993.6 mb 0.00 in0.0 mm 0.00 in0.0 mm 0.00 in0.0 mm
11:25 AM 84.9°F29.4°C 70.0°F21.1°C 61% 3.3 mph NNE5.3 kmh NNE 7.4 mph11.9 kmh 29.35 in993.9 mb 0.00 in0.0 mm 0.00 in0.0 mm 0.00 in0.0 mm
11:30 AM 85.0°F29.4°C 69.7°F20.9°C 60% 2.9 mph SE4.7 kmh SE 4.9 mph7.9 kmh 29.34 in993.6 mb 0.00 in0.0 mm 0.00 in0.0 mm 0.00 in0.0 mm
11:35 AM 85.2°F29.6°C 68.9°F20.5°C 58% 1.8 mph ENE2.9 kmh ENE 4.9 mph7.9 kmh 29.34 in993.6 mb 0.00 in0.0 mm 0.00 in0.0 mm 0.00 in0.0 mm
11:40 AM 85.5°F29.7°C 68.7°F20.4°C 57% 2.1 mph NNE3.4 kmh NNE 4.9 mph7.9 kmh 29.34 in993.6 mb 0.00 in0.0 mm 0.00 in0.0 mm 0.00 in0.0 mm
11:45 AM 85.6°F29.8°C 68.6°F20.3°C 57% 3.0 mph NE4.8 kmh NE 7.4 mph11.9 kmh 29.34 in993.6 mb 0.00 in0.0 mm 0.00 in0.0 mm 0.00 in0.0 mm
11:50 AM 85.8°F29.9°C 69.2°F20.7°C 58% 2.0 mph SSE3.2 kmh SSE 4.9 mph7.9 kmh 29.34 in993.6 mb 0.00 in0.0 mm 0.00 in0.0 mm 0.00 in0.0 mm
11:55 AM 86.0°F30.0°C 68.3°F20.2°C 56% 1.7 mph ESE2.7 kmh ESE 4.9 mph7.9 kmh 29.34 in993.6 mb 0.00 in0.0 mm 0.00 in0.0 mm 0.00 in0.0 mm
12:00 PM 86.4°F30.2°C 67.8°F19.9°C 54% 2.1 mph SSE3.4 kmh SSE 7.4 mph11.9 kmh 29.34 in993.6 mb 0.00 in0.0 mm 0.00 in0.0 mm 0.00 in0.0 mm
12:05 PM 86.5°F30.3°C 68.0°F20.0°C 54% 2.5 mph SE4.0 kmh SE 4.9 mph7.9 kmh 29.34 in993.6 mb 0.00 in0.0 mm 0.00 in0.0 mm 0.00 in0.0 mm
12:10 PM 86.7°F30.4°C 68.4°F20.2°C 55% 3.4 mph SSE5.5 kmh SSE 7.4 mph11.9 kmh 29.34 in993.6 mb 0.00 in0.0 mm 0.00 in0.0 mm 0.00 in0.0 mm
12:15 PM 86.7°F30.4°C 68.6°F20.3°C 55% 3.0 mph SE4.8 kmh SE 7.4 mph11.9 kmh 29.34 in993.6 mb 0.00 in0.0 mm 0.00 in0.0 mm 0.00 in0.0 mm
12:20 PM 87.1°F30.6°C 68.1°F20.1°C 54% 0.6 mph S1.0 kmh S 2.5 mph4.0 kmh 29.33 in993.2 mb 0.00 in0.0 mm 0.00 in0.0 mm 0.00 in0.0 mm
12:25 PM 87.3°F30.7°C 68.3°F20.2°C 54% 3.1 mph ENE5.0 kmh ENE 4.9 mph7.9 kmh 29.33 in993.2 mb 0.00 in0.0 mm 0.00 in0.0 mm 0.00 in0.0 mm
12:30 PM 87.3°F30.7°C 68.8°F20.4°C 54% 1.5 mph NE2.4 kmh NE 4.9 mph7.9 kmh 29.33 in993.2 mb 0.00 in0.0 mm 0.00 in0.0 mm 0.00 in0.0 mm
12:35 PM 87.3°F30.7°C 68.2°F20.1°C 53% 3.1 mph ENE5.0 kmh ENE 9.8 mph15.8 kmh 29.32 in992.9 mb 0.00 in0.0 mm 0.00 in0.0 mm 0.00 in0.0 mm
12:40 PM 87.5°F30.8°C 67.9°F19.9°C 52% 2.3 mph ENE3.7 kmh ENE 4.9 mph7.9 kmh 29.33 in993.2 mb 0.00 in0.0 mm 0.00 in0.0 mm 0.00 in0.0 mm
12:45 PM 87.9°F31.1°C 67.6°F19.8°C 51% 2.8 mph SSE4.5 kmh SSE 4.9 mph7.9 kmh 29.32 in992.9 mb 0.00 in0.0 mm 0.00 in0.0 mm 0.00 in0.0 mm
12:50 PM 88.2°F31.2°C 67.1°F19.5°C 50% 3.8 mph SE6.1 kmh SE 9.8 mph15.8 kmh 29.32 in992.9 mb 0.00 in0.0 mm 0.00 in0.0 mm 0.00 in0.0 mm
12:55 PM 88.5°F31.4°C 66.6°F19.2°C 49% 1.5 mph ENE2.4 kmh ENE 4.9 mph7.9 kmh 29.32 in992.9 mb 0.00 in0.0 mm 0.00 in0.0 mm 0.00 in0.0 mm
01:00 PM 89.1°F31.7°C 66.9°F19.4°C 48% 2.1 mph NE3.4 kmh NE 4.9 mph7.9 kmh 29.32 in992.9 mb 0.00 in0.0 mm 0.00 in0.0 mm 0.00 in0.0 mm
01:05 PM 89.4°F31.9°C 67.0°F19.4°C 48% 1.2 mph N1.9 kmh N 4.9 mph7.9 kmh 29.32 in992.9 mb 0.00 in0.0 mm 0.00 in0.0 mm 0.00 in0.0 mm
01:10 PM 89.9°F32.2°C 66.9°F19.4°C 47% 1.8 mph ENE2.9 kmh ENE 4.9 mph7.9 kmh 29.32 in992.9 mb 0.00 in0.0 mm 0.00 in0.0 mm 0.00 in0.0 mm
01:15 PM 90.1°F32.3°C 67.4°F19.7°C 48% 2.3 mph SSE3.7 kmh SSE 7.4 mph11.9 kmh 29.32 in992.9 mb 0.00 in0.0 mm 0.00 in0.0 mm 0.00 in0.0 mm
01:20 PM 90.3°F32.4°C 67.4°F19.7°C 47% 3.2 mph SE5.1 kmh SE 4.9 mph7.9 kmh 29.31 in992.6 mb 0.00 in0.0 mm 0.00 in0.0 mm 0.00 in0.0 mm
01:25 PM 90.6°F32.6°C 67.8°F19.9°C 47% 3.1 mph NE5.0 kmh NE 7.4 mph11.9 kmh 29.31 in992.6 mb 0.00 in0.0 mm 0.00 in0.0 mm 0.00 in0.0 mm
01:30 PM 91.0°F32.8°C 67.9°F19.9°C 47% 1.1 mph W1.8 kmh W 4.9 mph7.9 kmh 29.31 in992.6 mb 0.00 in0.0 mm 0.00 in0.0 mm 0.00 in0.0 mm
01:35 PM 91.0°F32.8°C 67.7°F19.8°C 47% 0.4 mph SW0.6 kmh SW 2.5 mph4.0 kmh 29.30 in992.2 mb 0.00 in0.0 mm 0.00 in0.0 mm 0.00 in0.0 mm
01:40 PM 91.4°F33.0°C 65.3°F18.5°C 42% 0.8 mph SE1.3 kmh SE 2.5 mph4.0 kmh 29.31 in992.6 mb 0.00 in0.0 mm 0.00 in0.0 mm 0.00 in0.0 mm
01:45 PM 91.9°F33.3°C 65.6°F18.7°C 42% 1.7 mph N2.7 kmh N 2.5 mph4.0 kmh 29.30 in992.2 mb 0.00 in0.0 mm 0.00 in0.0 mm 0.00 in0.0 mm
01:50 PM 92.3°F33.5°C 67.7°F19.8°C 45% 2.8 mph N4.5 kmh N 4.9 mph7.9 kmh 29.30 in992.2 mb 0.00 in0.0 mm 0.00 in0.0 mm 0.00 in0.0 mm
01:55 PM 92.2°F33.4°C 69.5°F20.8°C 48% 1.0 mph SW1.6 kmh SW 4.9 mph7.9 kmh 29.30 in992.2 mb 0.00 in0.0 mm 0.00 in0.0 mm 0.00 in0.0 mm
02:00 PM 92.1°F33.4°C 69.3°F20.7°C 48% 0.2 mph N0.3 kmh N 2.5 mph4.0 kmh 29.30 in992.2 mb 0.00 in0.0 mm 0.00 in0.0 mm 0.00 in0.0 mm
02:05 PM 92.5°F33.6°C 67.8°F19.9°C 45% 2.5 mph NW4.0 kmh NW 4.9 mph7.9 kmh 29.29 in991.9 mb 0.00 in0.0 mm 0.00 in0.0 mm 0.00 in0.0 mm
02:10 PM 92.1°F33.4°C 71.0°F21.7°C 50% 4.3 mph NE6.9 kmh NE 9.8 mph15.8 kmh 29.30 in992.2 mb 0.00 in0.0 mm 0.00 in0.0 mm 0.00 in0.0 mm
02:15 PM 91.1°F32.8°C 72.1°F22.3°C 54% 3.8 mph NE6.1 kmh NE 7.4 mph11.9 kmh 29.30 in992.2 mb 0.00 in0.0 mm 0.00 in0.0 mm 0.00 in0.0 mm
02:20 PM 90.2°F32.3°C 74.7°F23.7°C 61% 7.1 mph NE11.4 kmh NE 12.3 mph19.8 kmh 29.30 in992.2 mb 0.06 in1.5 mm 0.72 in18.3 mm 0.06 in1.5 mm
02:25 PM 88.2°F31.2°C 81.4°F27.4°C 80% 9.9 mph NE15.9 kmh NE 17.4 mph28.0 kmh 29.31 in992.6 mb 0.25 in6.4 mm 2.28 in57.9 mm 0.25 in6.4 mm
02:30 PM 85.1°F29.5°C 81.1°F27.3°C 88% 3.8 mph N6.1 kmh N 9.8 mph15.8 kmh 29.31 in992.6 mb 0.38 in9.7 mm 1.56 in39.6 mm 0.38 in9.7 mm
02:35 PM 82.0°F27.8°C 79.1°F26.2°C 91% 1.6 mph NW2.6 kmh NW 4.9 mph7.9 kmh 29.31 in992.6 mb 0.40 in10.2 mm 0.24 in6.1 mm 0.40 in10.2 mm
02:40 PM 79.4°F26.3°C 77.2°F25.1°C 93% 0.5 mph W0.8 kmh W 2.5 mph4.0 kmh 29.30 in992.2 mb 0.43 in10.9 mm 0.36 in9.1 mm 0.43 in10.9 mm
02:45 PM 77.1°F25.1°C 75.0°F23.9°C 93% Calm Calm -- 29.30 in992.2 mb 0.43 in10.9 mm 0.00 in0.0 mm 0.43 in10.9 mm
02:50 PM 75.2°F24.0°C 72.9°F22.7°C 93% 0.1 mph E0.2 kmh E 2.5 mph4.0 kmh 29.30 in992.2 mb 0.43 in10.9 mm 0.00 in0.0 mm 0.43 in10.9 mm
02:55 PM 74.8°F23.8°C 72.6°F22.6°C 93% 0.1 mph E0.2 kmh E 2.5 mph4.0 kmh 29.30 in992.2 mb 0.43 in10.9 mm 0.00 in0.0 mm 0.43 in10.9 mm
03:00 PM 75.3°F24.1°C 73.1°F22.8°C 93% 0.1 mph S0.2 kmh S 2.5 mph4.0 kmh 29.30 in992.2 mb 0.43 in10.9 mm 0.00 in0.0 mm 0.43 in10.9 mm
03:05 PM 76.2°F24.6°C 73.8°F23.2°C 92% Calm Calm -- 29.30 in992.2 mb 0.43 in10.9 mm 0.00 in0.0 mm 0.43 in10.9 mm
03:10 PM 76.8°F24.9°C 74.3°F23.5°C 92% Calm Calm -- 29.30 in992.2 mb 0.43 in10.9 mm 0.00 in0.0 mm 0.43 in10.9 mm
03:15 PM 77.3°F25.2°C 74.8°F23.8°C 92% Calm Calm -- 29.29 in991.9 mb 0.43 in10.9 mm 0.00 in0.0 mm 0.43 in10.9 mm
03:20 PM 77.5°F25.3°C 74.9°F23.8°C 92% 1.4 mph SSE2.3 kmh SSE 4.9 mph7.9 kmh 29.28 in991.5 mb 0.37 in9.4 mm 0.00 in0.0 mm 0.43 in10.9 mm
03:25 PM 77.7°F25.4°C 75.0°F23.9°C 92% 2.4 mph S3.9 kmh S 4.9 mph7.9 kmh 29.28 in991.5 mb 0.18 in4.6 mm 0.00 in0.0 mm 0.43 in10.9 mm
03:30 PM 77.7°F25.4°C 74.8°F23.8°C 91% 5.2 mph SSE8.4 kmh SSE 7.4 mph11.9 kmh 29.28 in991.5 mb 0.05 in1.3 mm 0.00 in0.0 mm 0.43 in10.9 mm
03:35 PM 77.7°F25.4°C 73.9°F23.3°C 88% 3.2 mph SSE5.1 kmh SSE 4.9 mph7.9 kmh 29.28 in991.5 mb 0.03 in0.8 mm 0.00 in0.0 mm 0.43 in10.9 mm
03:40 PM 77.7°F25.4°C 73.0°F22.8°C 86% 2.7 mph SSE4.3 kmh SSE 7.4 mph11.9 kmh 29.27 in991.2 mb 0.00 in0.0 mm 0.00 in0.0 mm 0.43 in10.9 mm
03:45 PM 77.8°F25.4°C 72.6°F22.6°C 84% 0.9 mph SSE1.4 kmh SSE 2.5 mph4.0 kmh 29.26 in990.9 mb 0.00 in0.0 mm 0.00 in0.0 mm 0.43 in10.9 mm
03:50 PM 78.0°F25.6°C 72.8°F22.7°C 84% 0.6 mph SSE1.0 kmh SSE 2.5 mph4.0 kmh 29.26 in990.9 mb 0.00 in0.0 mm 0.00 in0.0 mm 0.43 in10.9 mm
03:55 PM 78.2°F25.7°C 72.8°F22.7°C 84% Calm Calm -- 29.26 in990.9 mb 0.00 in0.0 mm 0.00 in0.0 mm 0.43 in10.9 mm
04:00 PM 78.3°F25.7°C 72.7°F22.6°C 83% Calm Calm -- 29.26 in990.9 mb 0.00 in0.0 mm 0.00 in0.0 mm 0.43 in10.9 mm
04:05 PM 78.8°F26.0°C 72.2°F22.3°C 80% Calm Calm -- 29.26 in990.9 mb 0.00 in0.0 mm 0.00 in0.0 mm 0.43 in10.9 mm
04:10 PM 79.6°F26.4°C 72.8°F22.7°C 80% Calm Calm -- 29.25 in990.5 mb 0.00 in0.0 mm 0.00 in0.0 mm 0.43 in10.9 mm
04:15 PM 80.3°F26.8°C 73.0°F22.8°C 79% Calm Calm -- 29.25 in990.5 mb 0.00 in0.0 mm 0.00 in0.0 mm 0.43 in10.9 mm
04:20 PM 81.1°F27.3°C 74.4°F23.6°C 80% 0.4 mph W0.6 kmh W 2.5 mph4.0 kmh 29.25 in990.5 mb 0.00 in0.0 mm 0.00 in0.0 mm 0.43 in10.9 mm
04:25 PM 82.2°F27.9°C 74.2°F23.4°C 77% 0.2 mph W0.3 kmh W 2.5 mph4.0 kmh 29.25 in990.5 mb 0.00 in0.0 mm 0.00 in0.0 mm 0.43 in10.9 mm
04:30 PM 83.1°F28.4°C 73.9°F23.3°C 74% 1.3 mph W2.1 kmh W 4.9 mph7.9 kmh 29.25 in990.5 mb 0.00 in0.0 mm 0.00 in0.0 mm 0.43 in10.9 mm
04:35 PM 83.8°F28.8°C 72.8°F22.7°C 70% 1.0 mph W1.6 kmh W 2.5 mph4.0 kmh 29.25 in990.5 mb 0.00 in0.0 mm 0.00 in0.0 mm 0.43 in10.9 mm
04:40 PM 84.5°F29.2°C 72.6°F22.6°C 68% 1.3 mph NW2.1 kmh NW 4.9 mph7.9 kmh 29.25 in990.5 mb 0.00 in0.0 mm 0.00 in0.0 mm 0.43 in10.9 mm
04:45 PM 84.9°F29.4°C 74.1°F23.4°C 70% 1.5 mph W2.4 kmh W 4.9 mph7.9 kmh 29.25 in990.5 mb 0.00 in0.0 mm 0.00 in0.0 mm 0.43 in10.9 mm
04:50 PM 85.2°F29.6°C 73.4°F23.0°C 68% 3.0 mph NW4.8 kmh NW 4.9 mph7.9 kmh 29.25 in990.5 mb 0.00 in0.0 mm 0.00 in0.0 mm 0.43 in10.9 mm
04:55 PM 85.3°F29.6°C 74.7°F23.7°C 71% 2.1 mph W3.4 kmh W 4.9 mph7.9 kmh 29.25 in990.5 mb 0.00 in0.0 mm 0.00 in0.0 mm 0.43 in10.9 mm
05:00 PM 85.5°F29.7°C 74.3°F23.5°C 69% 2.5 mph WNW4.0 kmh WNW 4.9 mph7.9 kmh 29.25 in990.5 mb 0.00 in0.0 mm 0.00 in0.0 mm 0.43 in10.9 mm
05:05 PM 85.5°F29.7°C 74.1°F23.4°C 69% 1.4 mph WNW2.3 kmh WNW 2.5 mph4.0 kmh 29.25 in990.5 mb 0.00 in0.0 mm 0.00 in0.0 mm 0.43 in10.9 mm
05:10 PM 85.7°F29.8°C 72.1°F22.3°C 64% 1.6 mph NW2.6 kmh NW 4.9 mph7.9 kmh 29.24 in990.2 mb 0.00 in0.0 mm 0.00 in0.0 mm 0.43 in10.9 mm
05:15 PM 85.9°F29.9°C 72.4°F22.4°C 64% 1.0 mph NW1.6 kmh NW 4.9 mph7.9 kmh 29.24 in990.2 mb 0.00 in0.0 mm 0.00 in0.0 mm 0.43 in10.9 mm
05:20 PM 86.1°F30.1°C 72.6°F22.6°C 64% 0.7 mph NW1.1 kmh NW 4.9 mph7.9 kmh 29.24 in990.2 mb 0.00 in0.0 mm 0.00 in0.0 mm 0.43 in10.9 mm
05:25 PM 86.5°F30.3°C 70.9°F21.6°C 60% 0.7 mph NW1.1 kmh NW 4.9 mph7.9 kmh 29.23 in989.8 mb 0.00 in0.0 mm 0.00 in0.0 mm 0.43 in10.9 mm
05:30 PM 87.0°F30.6°C 70.3°F21.3°C 58% 0.2 mph 0.3 kmh 2.5 mph4.0 kmh 29.23 in989.8 mb 0.00 in0.0 mm 0.00 in0.0 mm 0.43 in10.9 mm
05:35 PM 87.6°F30.9°C 69.8°F21.0°C 56% 0.7 mph NE1.1 kmh NE 4.9 mph7.9 kmh 29.23 in989.8 mb 0.00 in0.0 mm 0.00 in0.0 mm 0.43 in10.9 mm
05:40 PM 88.0°F31.1°C 70.5°F21.4°C 56% 0.4 mph NW0.6 kmh NW 2.5 mph4.0 kmh 29.23 in989.8 mb 0.00 in0.0 mm 0.00 in0.0 mm 0.43 in10.9 mm
05:45 PM 88.4°F31.3°C 70.6°F21.4°C 56% 1.5 mph NE2.4 kmh NE 4.9 mph7.9 kmh 29.23 in989.8 mb 0.00 in0.0 mm 0.00 in0.0 mm 0.43 in10.9 mm
05:50 PM 88.8°F31.6°C 70.5°F21.4°C 55% 1.4 mph N2.3 kmh N 4.9 mph7.9 kmh 29.23 in989.8 mb 0.00 in0.0 mm 0.00 in0.0 mm 0.43 in10.9 mm
05:55 PM 89.0°F31.7°C 70.7°F21.5°C 55% 2.8 mph NE4.5 kmh NE 4.9 mph7.9 kmh 29.23 in989.8 mb 0.00 in0.0 mm 0.00 in0.0 mm 0.43 in10.9 mm
06:00 PM 88.9°F31.6°C 71.5°F21.9°C 57% 1.0 mph NE1.6 kmh NE 2.5 mph4.0 kmh 29.23 in989.8 mb 0.00 in0.0 mm 0.00 in0.0 mm 0.43 in10.9 mm
06:05 PM 88.6°F31.4°C 72.3°F22.4°C 59% 0.8 mph NE1.3 kmh NE 2.5 mph4.0 kmh 29.23 in989.8 mb 0.00 in0.0 mm 0.00 in0.0 mm 0.43 in10.9 mm
06:10 PM 88.5°F31.4°C 71.5°F21.9°C 58% 0.7 mph N1.1 kmh N 2.5 mph4.0 kmh 29.23 in989.8 mb 0.00 in0.0 mm 0.00 in0.0 mm 0.43 in10.9 mm
06:15 PM 88.5°F31.4°C 71.0°F21.7°C 56% 1.7 mph N2.7 kmh N 4.9 mph7.9 kmh 29.23 in989.8 mb 0.00 in0.0 mm 0.00 in0.0 mm 0.43 in10.9 mm
06:20 PM 88.5°F31.4°C 70.5°F21.4°C 56% 1.0 mph N1.6 kmh N 4.9 mph7.9 kmh 29.23 in989.8 mb 0.00 in0.0 mm 0.00 in0.0 mm 0.43 in10.9 mm
06:25 PM 88.5°F31.4°C 70.4°F21.3°C 55% 2.2 mph N3.5 kmh N 4.9 mph7.9 kmh 29.23 in989.8 mb 0.00 in0.0 mm 0.00 in0.0 mm 0.43 in10.9 mm
06:30 PM 88.5°F31.4°C 70.9°F21.6°C 56% 2.5 mph N4.0 kmh N 4.9 mph7.9 kmh 29.22 in989.5 mb 0.00 in0.0 mm 0.00 in0.0 mm 0.43 in10.9 mm
06:35 PM 88.7°F31.5°C 71.4°F21.9°C 57% 1.9 mph NE3.1 kmh NE 4.9 mph7.9 kmh 29.23 in989.8 mb 0.00 in0.0 mm 0.00 in0.0 mm 0.43 in10.9 mm
06:40 PM 88.6°F31.4°C 70.7°F21.5°C 56% 2.2 mph NE3.5 kmh NE 4.9 mph7.9 kmh 29.23 in989.8 mb 0.00 in0.0 mm 0.00 in0.0 mm 0.43 in10.9 mm
06:45 PM 88.4°F31.3°C 70.6°F21.4°C 56% 3.0 mph NE4.8 kmh NE 7.4 mph11.9 kmh 29.23 in989.8 mb 0.00 in0.0 mm 0.00 in0.0 mm 0.43 in10.9 mm
06:50 PM 88.2°F31.2°C 71.5°F21.9°C 58% 1.7 mph N2.7 kmh N 4.9 mph7.9 kmh 29.23 in989.8 mb 0.00 in0.0 mm 0.00 in0.0 mm 0.43 in10.9 mm
06:55 PM 88.0°F31.1°C 71.4°F21.9°C 58% 1.7 mph NE2.7 kmh NE 4.9 mph7.9 kmh 29.23 in989.8 mb 0.00 in0.0 mm 0.00 in0.0 mm 0.43 in10.9 mm
07:00 PM 87.8°F31.0°C 71.5°F21.9°C 59% 1.7 mph N2.7 kmh N 4.9 mph7.9 kmh 29.23 in989.8 mb 0.00 in0.0 mm 0.00 in0.0 mm 0.43 in10.9 mm
07:05 PM 87.8°F31.0°C 71.3°F21.8°C 58% 1.3 mph ENE2.1 kmh ENE 4.9 mph7.9 kmh 29.23 in989.8 mb 0.00 in0.0 mm 0.00 in0.0 mm 0.43 in10.9 mm
07:10 PM 87.6°F30.9°C 70.7°F21.5°C 57% 1.7 mph NE2.7 kmh NE 4.9 mph7.9 kmh 29.23 in989.8 mb 0.00 in0.0 mm 0.00 in0.0 mm 0.43 in10.9 mm
07:15 PM 87.4°F30.8°C 69.4°F20.8°C 55% 1.8 mph NE2.9 kmh NE 7.4 mph11.9 kmh 29.23 in989.8 mb 0.00 in0.0 mm 0.00 in0.0 mm 0.43 in10.9 mm
07:20 PM 87.4°F30.8°C 69.0°F20.6°C 55% 1.6 mph NE2.6 kmh NE 4.9 mph7.9 kmh 29.23 in989.8 mb 0.00 in0.0 mm 0.00 in0.0 mm 0.43 in10.9 mm
07:25 PM 87.3°F30.7°C 68.9°F20.5°C 54% 1.9 mph NNE3.1 kmh NNE 4.9 mph7.9 kmh 29.23 in989.8 mb 0.00 in0.0 mm 0.00 in0.0 mm 0.43 in10.9 mm
07:30 PM 87.2°F30.7°C 69.5°F20.8°C 56% 1.6 mph NE2.6 kmh NE 4.9 mph7.9 kmh 29.23 in989.8 mb 0.00 in0.0 mm 0.00 in0.0 mm 0.43 in10.9 mm
07:35 PM 87.0°F30.6°C 70.2°F21.2°C 58% 2.4 mph 3.9 kmh 4.9 mph7.9 kmh 29.23 in989.8 mb 0.00 in0.0 mm 0.00 in0.0 mm 0.43 in10.9 mm
07:40 PM 86.7°F30.4°C 70.1°F21.2°C 58% 2.1 mph NE3.4 kmh NE 4.9 mph7.9 kmh 29.23 in989.8 mb 0.00 in0.0 mm 0.00 in0.0 mm 0.43 in10.9 mm
07:45 PM 86.5°F30.3°C 70.2°F21.2°C 59% 0.8 mph N1.3 kmh N 2.5 mph4.0 kmh 29.23 in989.8 mb 0.00 in0.0 mm 0.00 in0.0 mm 0.43 in10.9 mm
07:50 PM 86.3°F30.2°C 71.2°F21.8°C 61% 3.1 mph NE5.0 kmh NE 4.9 mph7.9 kmh 29.23 in989.8 mb 0.00 in0.0 mm 0.00 in0.0 mm 0.43 in10.9 mm
07:55 PM 86.1°F30.1°C 71.3°F21.8°C 62% 2.1 mph NE3.4 kmh NE 7.4 mph11.9 kmh 29.23 in989.8 mb 0.00 in0.0 mm 0.00 in0.0 mm 0.43 in10.9 mm
08:00 PM 85.8°F29.9°C 71.2°F21.8°C 62% 3.2 mph NE5.1 kmh NE 4.9 mph7.9 kmh 29.23 in989.8 mb 0.00 in0.0 mm 0.00 in0.0 mm 0.43 in10.9 mm
08:05 PM 85.6°F29.8°C 71.1°F21.7°C 62% 2.8 mph NE4.5 kmh NE 7.4 mph11.9 kmh 29.23 in989.8 mb 0.00 in0.0 mm 0.00 in0.0 mm 0.43 in10.9 mm
08:10 PM 85.5°F29.7°C 71.0°F21.7°C 62% 4.1 mph ENE6.6 kmh ENE 12.3 mph19.8 kmh 29.24 in990.2 mb 0.00 in0.0 mm 0.00 in0.0 mm 0.43 in10.9 mm
08:15 PM 85.3°F29.6°C 70.8°F21.6°C 62% 4.8 mph ENE7.7 kmh ENE 12.3 mph19.8 kmh 29.24 in990.2 mb 0.00 in0.0 mm 0.00 in0.0 mm 0.43 in10.9 mm
08:20 PM 85.0°F29.4°C 71.2°F21.8°C 64% 7.9 mph SE12.7 kmh SE 15.0 mph24.1 kmh 29.25 in990.5 mb 0.00 in0.0 mm 0.00 in0.0 mm 0.43 in10.9 mm
08:25 PM 84.6°F29.2°C 72.2°F22.3°C 67% 7.3 mph ESE11.7 kmh ESE 15.0 mph24.1 kmh 29.26 in990.9 mb 0.00 in0.0 mm 0.00 in0.0 mm 0.43 in10.9 mm
08:30 PM 83.9°F28.8°C 72.4°F22.4°C 69% 10.2 mph SE16.4 kmh SE 17.4 mph28.0 kmh 29.26 in990.9 mb 0.00 in0.0 mm 0.00 in0.0 mm 0.43 in10.9 mm
08:35 PM 83.0°F28.3°C 72.2°F22.3°C 70% 7.2 mph SE11.6 kmh SE 12.3 mph19.8 kmh 29.26 in990.9 mb 0.00 in0.0 mm 0.00 in0.0 mm 0.43 in10.9 mm
08:40 PM 81.9°F27.7°C 72.2°F22.3°C 73% 8.0 mph ESE12.9 kmh ESE 15.0 mph24.1 kmh 29.26 in990.9 mb 0.00 in0.0 mm 0.00 in0.0 mm 0.43 in10.9 mm
08:45 PM 80.6°F27.0°C 73.1°F22.8°C 78% 7.8 mph E12.6 kmh E 15.0 mph24.1 kmh 29.27 in991.2 mb 0.00 in0.0 mm 0.00 in0.0 mm 0.43 in10.9 mm
08:50 PM 79.3°F26.3°C 74.0°F23.3°C 84% 3.7 mph SE6.0 kmh SE 7.4 mph11.9 kmh 29.27 in991.2 mb 0.00 in0.0 mm 0.00 in0.0 mm 0.43 in10.9 mm
08:55 PM 78.1°F25.6°C 74.0°F23.3°C 87% 3.6 mph SE5.8 kmh SE 7.4 mph11.9 kmh 29.27 in991.2 mb 0.00 in0.0 mm 0.00 in0.0 mm 0.43 in10.9 mm
09:00 PM 77.1°F25.1°C 73.3°F22.9°C 88% 0.8 mph SSE1.3 kmh SSE 2.5 mph4.0 kmh 29.28 in991.5 mb 0.02 in0.5 mm 0.02 in0.5 mm 0.45 in11.4 mm
09:05 PM 76.5°F24.7°C 72.9°F22.7°C 89% Calm Calm -- 29.28 in991.5 mb 0.02 in0.5 mm 0.00 in0.0 mm 0.45 in11.4 mm
09:10 PM 76.0°F24.4°C 72.6°F22.6°C 90% Calm Calm -- 29.28 in991.5 mb 0.02 in0.5 mm 0.00 in0.0 mm 0.45 in11.4 mm
09:15 PM 75.6°F24.2°C 72.7°F22.6°C 91% Calm Calm -- 29.28 in991.5 mb 0.02 in0.5 mm 0.00 in0.0 mm 0.45 in11.4 mm
09:20 PM 75.4°F24.1°C 72.7°F22.6°C 91% Calm Calm -- 29.28 in991.5 mb 0.03 in0.8 mm 0.12 in3.0 mm 0.46 in11.7 mm
09:25 PM 75.4°F24.1°C 72.9°F22.7°C 92% Calm Calm -- 29.28 in991.5 mb 0.03 in0.8 mm 0.00 in0.0 mm 0.46 in11.7 mm
09:30 PM 75.5°F24.2°C 73.0°F22.8°C 92% 0.3 mph E0.5 kmh E 2.5 mph4.0 kmh 29.28 in991.5 mb 0.04 in1.0 mm 0.12 in3.0 mm 0.47 in11.9 mm
09:35 PM 75.6°F24.2°C 73.4°F23.0°C 93% 0.1 mph E0.2 kmh E 2.5 mph4.0 kmh 29.28 in991.5 mb 0.04 in1.0 mm 0.00 in0.0 mm 0.47 in11.9 mm
09:40 PM 75.7°F24.3°C 73.5°F23.1°C 93% 0.3 mph E0.5 kmh E 2.5 mph4.0 kmh 29.28 in991.5 mb 0.04 in1.0 mm 0.00 in0.0 mm 0.47 in11.9 mm
09:45 PM 75.9°F24.4°C 73.7°F23.2°C 93% 0.6 mph E1.0 kmh E 2.5 mph4.0 kmh 29.29 in991.9 mb 0.04 in1.0 mm 0.00 in0.0 mm 0.47 in11.9 mm
09:50 PM 76.1°F24.5°C 73.9°F23.3°C 93% 1.6 mph NE2.6 kmh NE 4.9 mph7.9 kmh 29.29 in991.9 mb 0.04 in1.0 mm 0.00 in0.0 mm 0.47 in11.9 mm
09:55 PM 76.1°F24.5°C 74.0°F23.3°C 93% 0.3 mph NE0.5 kmh NE 2.5 mph4.0 kmh 29.29 in991.9 mb 0.05 in1.3 mm 0.12 in3.0 mm 0.48 in12.2 mm
10:00 PM 76.2°F24.6°C 74.3°F23.5°C 94% 0.6 mph ENE1.0 kmh ENE 2.5 mph4.0 kmh 29.29 in991.9 mb 0.03 in0.8 mm 0.00 in0.0 mm 0.48 in12.2 mm
10:05 PM 76.3°F24.6°C 74.4°F23.6°C 94% 0.1 mph N0.2 kmh N 2.5 mph4.0 kmh 29.29 in991.9 mb 0.03 in0.8 mm 0.00 in0.0 mm 0.48 in12.2 mm
10:10 PM 76.3°F24.6°C 74.4°F23.6°C 94% 0.4 mph ENE0.6 kmh ENE 2.5 mph4.0 kmh 29.30 in992.2 mb 0.03 in0.8 mm 0.00 in0.0 mm 0.48 in12.2 mm
10:15 PM 76.3°F24.6°C 74.4°F23.6°C 94% 0.5 mph ENE0.8 kmh ENE 2.5 mph4.0 kmh 29.30 in992.2 mb 0.03 in0.8 mm 0.00 in0.0 mm 0.48 in12.2 mm
10:20 PM 76.3°F24.6°C 74.4°F23.6°C 94% 0.9 mph NE1.4 kmh NE 4.9 mph7.9 kmh 29.29 in991.9 mb 0.02 in0.5 mm 0.00 in0.0 mm 0.48 in12.2 mm
10:25 PM 76.3°F24.6°C 74.4°F23.6°C 94% 0.7 mph NE1.1 kmh NE 4.9 mph7.9 kmh 29.29 in991.9 mb 0.02 in0.5 mm 0.00 in0.0 mm 0.48 in12.2 mm
10:30 PM 76.3°F24.6°C 74.4°F23.6°C 94% 0.9 mph E1.4 kmh E 2.5 mph4.0 kmh 29.29 in991.9 mb 0.01 in0.3 mm 0.00 in0.0 mm 0.48 in12.2 mm
10:35 PM 76.3°F24.6°C 74.4°F23.6°C 94% 0.6 mph E1.0 kmh E 2.5 mph4.0 kmh 29.30 in992.2 mb 0.01 in0.3 mm 0.00 in0.0 mm 0.48 in12.2 mm
10:40 PM 76.3°F24.6°C 74.4°F23.6°C 94% 0.3 mph NE0.5 kmh NE 2.5 mph4.0 kmh 29.30 in992.2 mb 0.01 in0.3 mm 0.00 in0.0 mm 0.48 in12.2 mm
10:45 PM 76.3°F24.6°C 74.1°F23.4°C 93% 0.9 mph E1.4 kmh E 2.5 mph4.0 kmh 29.30 in992.2 mb 0.01 in0.3 mm 0.00 in0.0 mm 0.48 in12.2 mm
10:50 PM 76.4°F24.7°C 74.3°F23.5°C 93% 1.0 mph ENE1.6 kmh ENE 4.9 mph7.9 kmh 29.30 in992.2 mb 0.01 in0.3 mm 0.00 in0.0 mm 0.48 in12.2 mm
10:55 PM 76.5°F24.7°C 74.3°F23.5°C 93% 0.2 mph NE0.3 kmh NE 2.5 mph4.0 kmh 29.30 in992.2 mb 0.00 in0.0 mm 0.00 in0.0 mm 0.48 in12.2 mm
11:00 PM 76.5°F24.7°C 74.3°F23.5°C 93% 0.6 mph ENE1.0 kmh ENE 2.5 mph4.0 kmh 29.30 in992.2 mb 0.00 in0.0 mm 0.00 in0.0 mm 0.48 in12.2 mm
11:05 PM 76.5°F24.7°C 74.4°F23.6°C 93% 0.5 mph NE0.8 kmh NE 2.5 mph4.0 kmh 29.29 in991.9 mb 0.00 in0.0 mm 0.00 in0.0 mm 0.48 in12.2 mm
11:10 PM 76.5°F24.7°C 74.5°F23.6°C 94% 0.7 mph ENE1.1 kmh ENE 2.5 mph4.0 kmh 29.30 in992.2 mb 0.00 in0.0 mm 0.00 in0.0 mm 0.48 in12.2 mm
11:15 PM 76.6°F24.8°C 74.7°F23.7°C 94% 0.8 mph ENE1.3 kmh ENE 2.5 mph4.0 kmh 29.30 in992.2 mb 0.00 in0.0 mm 0.00 in0.0 mm 0.48 in12.2 mm
11:20 PM 76.6°F24.8°C 74.4°F23.6°C 93% 0.2 mph E0.3 kmh E 2.5 mph4.0 kmh 29.30 in992.2 mb 0.00 in0.0 mm 0.00 in0.0 mm 0.48 in12.2 mm
11:25 PM 76.6°F24.8°C 74.4°F23.6°C 93% 0.8 mph E1.3 kmh E 4.9 mph7.9 kmh 29.29 in991.9 mb 0.00 in0.0 mm 0.00 in0.0 mm 0.48 in12.2 mm
11:30 PM 76.6°F24.8°C 74.3°F23.5°C 92% 0.5 mph E0.8 kmh E 2.5 mph4.0 kmh 29.29 in991.9 mb 0.00 in0.0 mm 0.00 in0.0 mm 0.48 in12.2 mm
11:35 PM 76.8°F24.9°C 74.3°F23.5°C 92% 0.1 mph ENE0.2 kmh ENE 2.5 mph4.0 kmh 29.29 in991.9 mb 0.00 in0.0 mm 0.00 in0.0 mm 0.48 in12.2 mm
11:40 PM 76.8°F24.9°C 74.3°F23.5°C 92% 1.0 mph E1.6 kmh E 4.9 mph7.9 kmh 29.29 in991.9 mb 0.00 in0.0 mm 0.00 in0.0 mm 0.48 in12.2 mm
11:45 PM 76.8°F24.9°C 74.3°F23.5°C 92% 1.2 mph ESE1.9 kmh ESE 2.5 mph4.0 kmh 29.29 in991.9 mb 0.00 in0.0 mm 0.00 in0.0 mm 0.48 in12.2 mm
11:50 PM 76.9°F24.9°C 74.4°F23.6°C 92% 1.0 mph ENE1.6 kmh ENE 4.9 mph7.9 kmh 29.29 in991.9 mb 0.00 in0.0 mm 0.00 in0.0 mm 0.48 in12.2 mm
11:55 PM 77.0°F25.0°C 74.5°F23.6°C 92% 0.8 mph ENE1.3 kmh ENE 2.5 mph4.0 kmh 29.29 in991.9 mb 0.00 in0.0 mm 0.00 in0.0 mm 0.48 in12.2 mm